createdAt,value
2019-04-21T00:06:35.330Z,99.40
2019-04-21T00:11:41.289Z,99.90
2019-04-21T00:16:34.775Z,99.90
2019-04-21T00:33:17.175Z,99.90
2019-04-21T01:15:37.129Z,99.90
2019-04-21T01:20:30.300Z,99.90
2019-04-21T01:36:38.659Z,99.90
2019-04-21T01:41:42.868Z,99.90
2019-04-21T01:46:33.963Z,99.90
2019-04-21T01:51:50.712Z,99.90
2019-04-21T01:57:34.526Z,99.90
2019-04-21T02:02:46.207Z,99.90
2019-04-21T02:08:11.041Z,99.90
2019-04-21T02:13:17.104Z,99.90
2019-04-21T02:18:27.686Z,99.90
2019-04-21T02:23:57.462Z,99.90
2019-04-21T02:28:55.990Z,99.90
2019-04-21T02:39:15.792Z,99.90
2019-04-21T02:44:08.239Z,99.90
2019-04-21T02:49:42.224Z,99.90
2019-04-21T03:04:47.574Z,99.90
2019-04-21T03:09:51.192Z,99.90
2019-04-21T03:15:25.154Z,99.90
2019-04-21T03:20:43.968Z,99.90
2019-04-21T03:31:05.933Z,99.90
2019-04-21T03:41:08.588Z,99.90
2019-04-21T03:46:05.877Z,99.90
2019-04-21T03:51:12.174Z,99.90
2019-04-21T03:56:42.419Z,99.90
2019-04-21T04:01:22.104Z,99.90
2019-04-21T04:27:20.285Z,99.90
2019-04-21T04:32:24.925Z,99.90
2019-04-21T04:52:48.512Z,99.90
2019-04-21T05:07:57.673Z,99.90
2019-04-21T05:13:14.367Z,99.90
2019-04-21T05:17:57.713Z,98.30
2019-04-21T05:33:53.821Z,53.30
2019-04-21T05:39:37.499Z,48.50
2019-04-21T05:49:52.473Z,41.60
2019-04-21T05:55:01.268Z,41.70
2019-04-21T06:00:04.327Z,39.70
2019-04-21T06:10:31.473Z,36.30
2019-04-21T06:31:11.169Z,29.80
2019-04-21T06:36:31.044Z,29.30
2019-04-21T06:41:32.645Z,29.00
2019-04-21T06:46:40.809Z,27.50
2019-04-21T06:51:55.907Z,27.20
2019-04-21T06:57:26.118Z,26.60
2019-04-21T07:02:30.363Z,25.50
2019-04-21T07:07:13.660Z,24.50
2019-04-21T07:12:13.894Z,23.80
2019-04-21T07:17:27.897Z,23.60
2019-04-21T07:22:31.246Z,23.00
2019-04-21T07:48:18.782Z,21.30
2019-04-21T07:53:42.361Z,20.90
2019-04-21T07:59:00.189Z,21.10
2019-04-21T08:04:03.807Z,20.70
2019-04-21T08:09:08.989Z,20.60
2019-04-21T08:14:13.865Z,20.10
2019-04-21T08:24:42.372Z,19.70
2019-04-21T08:29:51.914Z,20.00
2019-04-21T08:35:49.693Z,20.40
2019-04-21T08:40:31.576Z,19.20
2019-04-21T08:45:41.642Z,19.80
2019-04-21T08:50:44.210Z,19.70
2019-04-21T09:01:08.775Z,18.90
2019-04-21T09:06:27.399Z,18.30
2019-04-21T09:16:50.301Z,17.80
2019-04-21T09:22:02.131Z,17.40
2019-04-21T09:27:03.517Z,18.80
2019-04-21T09:31:55.526Z,18.80
2019-04-21T09:36:51.299Z,18.60
2019-04-21T09:41:59.077Z,18.50
2019-04-21T09:47:03.739Z,18.50
2019-04-21T09:52:18.850Z,18.50
2019-04-21T09:57:36.845Z,17.50
2019-04-21T10:02:42.757Z,17.70
2019-04-21T10:07:44.202Z,17.50
2019-04-21T10:12:52.450Z,17.80
2019-04-21T10:18:00.537Z,18.00
2019-04-21T10:23:17.692Z,17.70
2019-04-21T10:33:30.333Z,18.30
2019-04-21T10:38:53.865Z,18.20
2019-04-21T10:43:51.310Z,18.30
2019-04-21T10:49:08.654Z,19.20
2019-04-21T10:54:06.426Z,18.70
2019-04-21T11:20:31.149Z,18.20
2019-04-21T11:26:13.620Z,19.30
2019-04-21T11:31:20.793Z,21.00
2019-04-21T11:36:19.713Z,24.60
2019-04-21T11:47:42.731Z,27.60
2019-04-21T11:58:00.289Z,28.20
2019-04-21T12:03:18.688Z,29.70
2019-04-21T12:08:55.522Z,29.60
2019-04-21T12:13:42.385Z,29.30
2019-04-21T13:04:19.720Z,30.10
2019-04-21T13:14:45.877Z,29.80
2019-04-21T13:20:12.411Z,30.80
2019-04-21T13:25:20.458Z,30.80
2019-04-21T13:30:20.262Z,30.50
2019-04-21T13:35:21.221Z,32.00
2019-04-21T13:40:58.350Z,31.20
2019-04-21T13:51:01.474Z,31.80
2019-04-21T14:01:27.547Z,31.60
2019-04-21T14:06:42.559Z,31.80
2019-04-21T14:11:43.469Z,31.60
2019-04-21T14:16:54.148Z,32.40
2019-04-21T14:21:59.149Z,32.10
2019-04-21T14:27:00.961Z,31.90
2019-04-21T14:32:18.098Z,31.50
2019-04-21T14:37:18.486Z,31.80
2019-04-21T14:42:42.349Z,31.90
2019-04-21T14:48:03.176Z,31.70
2019-04-21T15:03:37.600Z,30.70
2019-04-21T15:09:37.100Z,31.10
2019-04-21T15:15:00.144Z,30.90
2019-04-21T15:40:40.122Z,31.30
2019-04-21T15:46:02.775Z,30.20
2019-04-21T15:51:13.663Z,30.10
2019-04-21T15:56:40.768Z,30.10
2019-04-21T16:01:42.816Z,30.60
2019-04-21T16:06:49.955Z,31.20
2019-04-21T16:16:59.022Z,31.20
2019-04-21T16:22:08.475Z,31.00
2019-04-21T16:32:48.171Z,31.30
2019-04-21T16:38:01.280Z,32.20
2019-04-21T16:43:26.947Z,32.00
2019-04-21T16:53:50.152Z,33.00
2019-04-21T16:59:12.565Z,33.20
2019-04-21T17:04:18.309Z,33.30
2019-04-21T17:09:30.794Z,33.70
2019-04-21T17:15:01.109Z,34.10
2019-04-21T17:25:10.542Z,35.10
2019-04-21T17:30:24.291Z,35.50
2019-04-21T17:35:40.719Z,35.80
2019-04-21T17:40:49.538Z,36.30
2019-04-21T17:46:20.350Z,36.90
2019-04-21T17:51:15.630Z,38.30
2019-04-21T17:56:55.207Z,38.20
2019-04-21T18:02:34.023Z,38.90
2019-04-21T18:07:34.929Z,39.80
2019-04-21T18:12:59.243Z,42.00
2019-04-21T18:17:56.595Z,43.20
2019-04-21T18:23:28.132Z,44.40
2019-04-21T18:28:16.663Z,45.60
2019-04-21T18:33:22.284Z,46.30
2019-04-21T18:39:00.077Z,47.70
2019-04-21T18:44:02.884Z,47.30
2019-04-21T18:48:50.958Z,47.60
2019-04-21T18:54:35.673Z,48.90
2019-04-21T18:59:27.267Z,50.50
2019-04-21T19:04:40.524Z,51.70
2019-04-21T19:10:35.314Z,52.50
2019-04-21T19:16:03.387Z,52.90
2019-04-21T19:20:49.005Z,55.20
2019-04-21T19:26:04.913Z,56.20
2019-04-21T19:31:30.108Z,63.00
2019-04-21T19:36:07.897Z,63.40
2019-04-21T19:41:32.833Z,68.80
2019-04-21T19:46:56.008Z,70.10
2019-04-21T19:56:47.086Z,76.60
2019-04-21T20:02:27.975Z,79.30
2019-04-21T20:07:21.087Z,81.90
2019-04-21T20:12:36.532Z,86.60
2019-04-21T20:17:50.324Z,88.80
2019-04-21T20:22:51.949Z,90.10
2019-04-21T20:27:58.202Z,90.60
2019-04-21T20:33:06.009Z,92.60
2019-04-21T20:37:52.544Z,90.60
2019-04-21T20:42:47.052Z,86.00
2019-04-21T20:47:40.572Z,83.30
2019-04-21T20:52:50.577Z,85.80
2019-04-21T20:57:41.057Z,87.00
2019-04-21T21:02:43.623Z,91.10
2019-04-21T21:12:35.859Z,92.20
2019-04-21T21:17:39.227Z,93.90
2019-04-21T21:22:16.599Z,94.70
2019-04-21T21:27:24.136Z,95.50
2019-04-21T21:32:32.074Z,96.60
2019-04-21T21:37:21.743Z,96.00
2019-04-21T21:41:59.750Z,97.00
2019-04-21T21:47:01.580Z,97.20
2019-04-21T21:52:00.255Z,98.00
2019-04-21T21:56:42.632Z,98.60
2019-04-21T22:01:41.585Z,99.40
2019-04-21T22:06:42.169Z,99.90
2019-04-21T22:11:29.923Z,99.90
2019-04-21T22:16:38.929Z,99.90
2019-04-21T22:21:41.593Z,99.90
2019-04-21T22:26:16.623Z,99.90
2019-04-21T22:31:18.188Z,99.90
2019-04-21T22:36:23.369Z,99.90
2019-04-21T22:41:21.665Z,99.90
2019-04-21T22:46:07.337Z,99.90
2019-04-21T22:51:07.310Z,99.90
2019-04-21T22:56:10.164Z,99.90
2019-04-21T23:01:00.521Z,99.90
2019-04-21T23:05:53.875Z,99.90
2019-04-21T23:10:55.863Z,99.90
2019-04-21T23:15:50.882Z,99.90
2019-04-21T23:20:57.768Z,99.90
2019-04-21T23:25:53.371Z,99.90
2019-04-21T23:30:54.489Z,99.90
2019-04-21T23:35:37.812Z,99.90
2019-04-21T23:40:30.789Z,99.90
2019-04-21T23:45:30.494Z,99.90
2019-04-21T23:50:34.235Z,99.90
2019-04-21T23:55:19.054Z,99.90
